createdAt,value
2024-01-07T00:00:36.698Z,21.87
2024-01-07T00:03:25.795Z,19.70
2024-01-07T00:05:54.766Z,19.97
2024-01-07T00:08:23.949Z,21.77
2024-01-07T00:10:54.698Z,15.43
2024-01-07T00:13:25.308Z,18.17
2024-01-07T00:15:55.076Z,21.67
2024-01-07T00:18:25.584Z,19.73
2024-01-07T00:20:54.702Z,18.57
2024-01-07T00:23:24.237Z,18.93
2024-01-07T00:25:53.105Z,19.50
2024-01-07T00:28:22.251Z,22.03
2024-01-07T00:30:52.567Z,21.00
2024-01-07T00:33:22.029Z,18.60
2024-01-07T00:35:50.902Z,19.07
2024-01-07T00:38:20.514Z,19.47
2024-01-07T00:40:49.787Z,20.03
2024-01-07T00:43:19.611Z,16.30
2024-01-07T00:45:48.537Z,19.53
2024-01-07T00:48:19.191Z,20.07
2024-01-07T00:50:48.583Z,17.77
2024-01-07T00:53:17.749Z,18.40
2024-01-07T00:55:46.764Z,19.60
2024-01-07T00:58:15.900Z,21.07
2024-01-07T01:00:44.885Z,19.33
2024-01-07T01:03:14.199Z,21.80
2024-01-07T01:05:44.724Z,22.07
2024-01-07T01:08:13.942Z,19.80
2024-01-07T01:10:42.668Z,22.17
2024-01-07T01:13:12.156Z,20.13
2024-01-07T01:15:40.973Z,23.27
2024-01-07T01:18:10.146Z,21.40
2024-01-07T01:20:39.050Z,21.97
2024-01-07T01:23:09.501Z,22.87
2024-01-07T01:25:40.956Z,19.03
2024-01-07T01:28:10.188Z,19.27
2024-01-07T01:30:39.103Z,19.07
2024-01-07T01:33:08.257Z,17.13
2024-01-07T01:35:37.180Z,18.67
2024-01-07T01:38:07.969Z,16.97
2024-01-07T01:40:37.009Z,17.23
2024-01-07T01:43:06.566Z,20.10
2024-01-07T01:45:35.483Z,16.90
2024-01-07T01:48:04.979Z,16.60
2024-01-07T01:50:34.135Z,16.53
2024-01-07T01:53:03.460Z,15.80
2024-01-07T01:55:34.609Z,15.03
2024-01-07T01:58:06.255Z,14.73
2024-01-07T02:00:35.369Z,15.17
2024-01-07T02:03:04.793Z,16.37
2024-01-07T02:05:34.081Z,14.50
2024-01-07T02:08:03.525Z,19.93
2024-01-07T02:10:35.921Z,18.30
2024-01-07T02:13:05.884Z,16.50
2024-01-07T02:15:35.799Z,16.77
2024-01-07T02:18:05.565Z,17.83
2024-01-07T02:20:34.454Z,16.13
2024-01-07T02:23:03.753Z,17.37
2024-01-07T02:25:38.744Z,16.00
2024-01-07T02:28:08.464Z,16.80
2024-01-07T02:30:37.368Z,15.97
2024-01-07T02:33:07.307Z,13.47
2024-01-07T02:35:36.129Z,13.37
2024-01-07T02:38:05.594Z,11.17
2024-01-07T02:40:34.413Z,14.97
2024-01-07T02:43:05.297Z,12.83
2024-01-07T02:45:34.195Z,12.73
2024-01-07T02:48:04.885Z,13.67
2024-01-07T02:50:34.543Z,14.73
2024-01-07T02:53:03.639Z,12.77
2024-01-07T02:55:32.534Z,16.47
2024-01-07T02:58:01.670Z,12.93
2024-01-07T03:00:31.967Z,14.73
2024-01-07T03:03:01.211Z,13.27
2024-01-07T03:05:33.824Z,12.60
2024-01-07T03:08:03.121Z,14.47
2024-01-07T03:10:31.877Z,12.87
2024-01-07T03:13:01.021Z,15.93
2024-01-07T03:15:31.402Z,14.10
2024-01-07T03:18:00.499Z,13.37
2024-01-07T03:20:29.484Z,13.27
2024-01-07T03:22:59.204Z,13.70
2024-01-07T03:25:28.037Z,14.47
2024-01-07T03:27:57.212Z,16.03
2024-01-07T03:30:26.345Z,14.07
2024-01-07T03:32:57.063Z,12.87
2024-01-07T03:35:25.958Z,14.20
2024-01-07T03:37:55.141Z,14.27
2024-01-07T03:40:24.076Z,16.23
2024-01-07T03:42:53.324Z,11.77
2024-01-07T03:45:21.415Z,17.03
2024-01-07T03:47:50.752Z,16.73
2024-01-07T03:50:21.067Z,15.63
2024-01-07T03:52:50.199Z,18.10
2024-01-07T03:55:19.037Z,14.87
2024-01-07T03:57:48.232Z,16.23
2024-01-07T04:00:17.571Z,15.00
2024-01-07T04:02:46.800Z,15.03
2024-01-07T04:05:16.437Z,16.27
2024-01-07T04:07:46.910Z,16.73
2024-01-07T04:10:15.891Z,13.13
2024-01-07T04:12:45.538Z,12.67
2024-01-07T04:15:14.702Z,12.67
2024-01-07T04:17:43.969Z,16.83
2024-01-07T04:20:16.245Z,14.17
2024-01-07T04:22:46.697Z,17.30
2024-01-07T04:25:15.674Z,16.30
2024-01-07T04:27:44.739Z,15.73
2024-01-07T04:30:14.364Z,18.60
2024-01-07T04:32:43.607Z,16.50
2024-01-07T04:35:12.379Z,15.27
2024-01-07T04:37:41.466Z,16.20
2024-01-07T04:40:13.791Z,12.27
2024-01-07T04:42:42.939Z,13.37
2024-01-07T04:45:11.853Z,14.00
2024-01-07T04:47:40.970Z,16.60
2024-01-07T04:50:10.600Z,13.93
2024-01-07T04:52:39.615Z,13.10
2024-01-07T04:55:10.936Z,14.90
2024-01-07T04:57:41.420Z,13.40
2024-01-07T05:00:11.859Z,16.40
2024-01-07T05:02:41.216Z,13.67
2024-01-07T05:05:11.234Z,17.07
2024-01-07T05:07:40.559Z,14.17
2024-01-07T05:10:10.387Z,13.27
2024-01-07T05:12:41.048Z,12.57
2024-01-07T05:15:11.374Z,16.13
2024-01-07T05:17:40.564Z,12.50
2024-01-07T05:20:11.357Z,13.27
2024-01-07T05:22:40.587Z,15.20
2024-01-07T05:25:10.403Z,14.47
2024-01-07T05:27:41.060Z,17.93
2024-01-07T05:30:10.495Z,14.93
2024-01-07T05:32:39.748Z,15.57
2024-01-07T05:35:09.812Z,13.77
2024-01-07T05:37:38.954Z,15.60
2024-01-07T05:40:09.861Z,11.63
2024-01-07T05:42:40.457Z,14.73
2024-01-07T05:45:10.173Z,17.57
2024-01-07T05:47:39.388Z,14.50
2024-01-07T05:50:08.701Z,12.73
2024-01-07T05:52:37.704Z,14.37
2024-01-07T05:55:08.508Z,14.53
2024-01-07T05:57:37.575Z,12.13
2024-01-07T06:00:09.884Z,13.70
2024-01-07T06:02:41.891Z,12.70
2024-01-07T06:05:11.363Z,12.17
2024-01-07T06:07:40.813Z,14.37
2024-01-07T06:10:11.009Z,11.97
2024-01-07T06:12:40.169Z,12.40
2024-01-07T06:15:11.502Z,12.30
2024-01-07T06:17:40.598Z,14.23
2024-01-07T06:20:10.750Z,13.70
2024-01-07T06:22:39.857Z,12.70
2024-01-07T06:25:11.476Z,14.33
2024-01-07T06:27:42.510Z,10.90
2024-01-07T06:30:14.754Z,10.83
2024-01-07T06:32:43.884Z,12.50
2024-01-07T06:35:12.638Z,14.60
2024-01-07T06:37:41.683Z,13.50
2024-01-07T06:40:12.872Z,13.13
2024-01-07T06:42:43.196Z,14.20
2024-01-07T06:45:13.626Z,12.70
2024-01-07T06:47:43.000Z,14.40
2024-01-07T06:50:12.740Z,11.07
2024-01-07T06:52:41.931Z,15.90
2024-01-07T06:55:11.191Z,15.03
2024-01-07T06:57:40.526Z,14.70
2024-01-07T07:00:10.569Z,14.80
2024-01-07T07:02:42.279Z,13.37
2024-01-07T07:05:11.389Z,12.47
2024-01-07T07:07:41.282Z,12.50
2024-01-07T07:10:11.252Z,15.50
2024-01-07T07:12:40.535Z,14.13
2024-01-07T07:15:10.836Z,12.93
2024-01-07T07:17:41.751Z,15.20
2024-01-07T07:20:12.014Z,13.27
2024-01-07T07:22:41.488Z,13.50
2024-01-07T07:25:11.056Z,14.87
2024-01-07T07:27:40.155Z,12.47
2024-01-07T07:30:10.065Z,16.53
2024-01-07T07:32:43.558Z,12.60
2024-01-07T07:35:12.534Z,12.80
2024-01-07T07:37:41.571Z,14.73
2024-01-07T07:40:13.108Z,14.70
2024-01-07T07:42:42.516Z,11.73
2024-01-07T07:45:12.442Z,14.47
2024-01-07T07:47:46.195Z,20.07
2024-01-07T07:50:15.579Z,13.37
2024-01-07T07:52:45.896Z,15.73
2024-01-07T07:55:14.776Z,17.73
2024-01-07T07:57:43.940Z,12.57
2024-01-07T08:00:14.968Z,12.80
2024-01-07T08:02:45.775Z,13.73
2024-01-07T08:05:15.260Z,15.10
2024-01-07T08:07:44.742Z,19.17
2024-01-07T08:10:13.759Z,17.50
2024-01-07T08:12:42.912Z,18.27
2024-01-07T08:15:12.464Z,16.33
2024-01-07T08:17:41.787Z,15.23
2024-01-07T08:20:13.983Z,15.60
2024-01-07T08:22:43.147Z,16.30
2024-01-07T08:25:12.521Z,14.97
2024-01-07T08:27:43.550Z,13.77
2024-01-07T08:30:14.910Z,11.90
2024-01-07T08:32:44.762Z,13.20
2024-01-07T08:35:17.051Z,14.80
2024-01-07T08:37:47.662Z,12.93
2024-01-07T08:40:18.277Z,14.83
2024-01-07T08:42:47.505Z,14.10
2024-01-07T08:45:16.735Z,11.80
2024-01-07T08:47:46.267Z,15.13
2024-01-07T08:50:16.806Z,12.50
2024-01-07T08:52:47.652Z,13.80
2024-01-07T08:55:16.913Z,15.27
2024-01-07T08:57:50.387Z,13.70
2024-01-07T09:00:20.696Z,14.27
2024-01-07T09:02:49.975Z,16.03
2024-01-07T09:05:20.414Z,16.83
2024-01-07T09:07:49.471Z,14.60
2024-01-07T09:10:20.176Z,15.97
2024-01-07T09:12:50.947Z,15.87
2024-01-07T09:15:22.139Z,16.50
2024-01-07T09:17:51.417Z,16.77
2024-01-07T09:20:21.756Z,16.30
2024-01-07T09:22:50.991Z,16.23
2024-01-07T09:25:20.052Z,12.50
2024-01-07T09:27:49.276Z,18.97
2024-01-07T09:30:18.930Z,14.37
2024-01-07T09:32:48.022Z,17.03
2024-01-07T09:35:17.127Z,19.10
2024-01-07T09:37:47.592Z,20.13
2024-01-07T09:40:20.906Z,14.87
2024-01-07T09:42:50.521Z,17.33
2024-01-07T09:45:23.547Z,13.27
2024-01-07T09:47:52.974Z,20.23
2024-01-07T09:50:22.117Z,13.53
2024-01-07T09:52:59.156Z,18.47
2024-01-07T09:55:36.339Z,13.57
2024-01-07T09:58:06.232Z,14.80
2024-01-07T10:00:35.905Z,26.03
2024-01-07T10:03:05.578Z,18.30
2024-01-07T10:05:34.624Z,17.57
2024-01-07T10:08:05.607Z,20.10
2024-01-07T10:10:37.388Z,22.37
2024-01-07T10:13:06.646Z,14.63
2024-01-07T10:15:35.590Z,20.53
2024-01-07T10:18:07.538Z,15.20
2024-01-07T10:20:36.961Z,15.50
2024-01-07T10:23:09.123Z,39.53
2024-01-07T10:25:38.812Z,23.73
2024-01-07T10:28:07.926Z,23.83
2024-01-07T10:30:36.869Z,19.80
2024-01-07T10:33:07.506Z,35.00
2024-01-07T10:35:39.950Z,22.23
2024-01-07T10:38:10.584Z,22.93
2024-01-07T10:40:41.075Z,25.67
2024-01-07T10:43:11.291Z,22.73
2024-01-07T10:45:40.344Z,18.67
2024-01-07T10:48:13.008Z,24.07
2024-01-07T10:50:43.720Z,24.37
2024-01-07T10:53:20.995Z,18.53
2024-01-07T10:56:00.757Z,12.93
2024-01-07T10:58:30.325Z,15.63
2024-01-07T11:01:01.301Z,16.97
2024-01-07T11:03:40.727Z,17.10
2024-01-07T11:06:22.557Z,14.03
2024-01-07T11:09:01.277Z,18.50
2024-01-07T11:11:42.552Z,15.40
2024-01-07T11:14:38.808Z,17.73
2024-01-07T11:17:08.513Z,15.70
2024-01-07T11:19:38.535Z,16.97
2024-01-07T11:22:29.591Z,17.97
2024-01-07T11:25:02.979Z,16.33
2024-01-07T11:27:33.588Z,18.43
2024-01-07T11:30:11.234Z,17.37
2024-01-07T11:32:42.164Z,16.00
2024-01-07T11:35:11.516Z,17.87
2024-01-07T11:37:40.279Z,17.13
2024-01-07T11:40:12.754Z,19.07
2024-01-07T11:42:41.749Z,18.50
2024-01-07T11:45:12.229Z,17.30
2024-01-07T11:47:41.214Z,14.30
2024-01-07T11:50:10.820Z,17.00
2024-01-07T11:52:40.371Z,15.77
2024-01-07T11:55:12.018Z,13.37
2024-01-07T11:57:40.861Z,13.23
2024-01-07T12:00:11.782Z,14.33
2024-01-07T12:02:43.414Z,12.70
2024-01-07T12:05:14.115Z,12.47
2024-01-07T12:07:43.513Z,12.83
2024-01-07T12:10:15.350Z,14.77
2024-01-07T12:12:44.960Z,15.27
2024-01-07T12:15:15.940Z,13.53
2024-01-07T12:17:45.253Z,15.77
2024-01-07T12:20:14.389Z,14.77
2024-01-07T12:22:43.190Z,14.13
2024-01-07T12:25:13.964Z,16.30
2024-01-07T12:27:44.802Z,12.27
2024-01-07T12:30:15.166Z,15.60
2024-01-07T12:32:43.148Z,13.10
2024-01-07T12:35:12.583Z,17.50
2024-01-07T12:37:41.530Z,16.40
2024-01-07T12:40:14.047Z,17.27
2024-01-07T12:42:46.294Z,12.87
2024-01-07T12:45:16.828Z,13.07
2024-01-07T12:47:46.980Z,14.37
2024-01-07T12:50:17.159Z,13.40
2024-01-07T12:52:46.760Z,12.93
2024-01-07T12:55:17.372Z,13.77
2024-01-07T12:57:46.390Z,13.03
2024-01-07T13:00:16.924Z,13.90
2024-01-07T13:02:46.005Z,12.47
2024-01-07T13:05:15.908Z,16.33
2024-01-07T13:07:45.206Z,15.30
2024-01-07T13:10:14.527Z,13.80
2024-01-07T13:12:48.991Z,12.53
2024-01-07T13:15:20.131Z,11.30
2024-01-07T13:17:49.470Z,13.77
2024-01-07T13:20:21.409Z,12.37
2024-01-07T13:22:50.538Z,11.90
2024-01-07T13:25:19.909Z,13.77
2024-01-07T13:27:50.238Z,13.10
2024-01-07T13:30:19.714Z,12.10
2024-01-07T13:32:50.879Z,12.80
2024-01-07T13:35:20.236Z,12.27
2024-01-07T13:37:49.150Z,14.70
2024-01-07T13:40:20.390Z,16.17
2024-01-07T13:42:52.493Z,15.57
2024-01-07T13:45:23.904Z,13.93
2024-01-07T13:47:52.933Z,14.67
2024-01-07T13:50:22.181Z,11.17
2024-01-07T13:52:51.138Z,12.83
2024-01-07T13:55:20.753Z,12.00
2024-01-07T13:57:51.177Z,11.17
2024-01-07T14:00:20.671Z,12.67
2024-01-07T14:02:50.577Z,11.97
2024-01-07T14:05:20.812Z,12.33
2024-01-07T14:07:49.953Z,14.63
2024-01-07T14:10:21.004Z,12.33
2024-01-07T14:12:51.322Z,11.87
2024-01-07T14:15:20.541Z,14.37
2024-01-07T14:17:50.364Z,15.37
2024-01-07T14:20:19.568Z,15.13
2024-01-07T14:22:48.403Z,15.57
2024-01-07T14:25:17.814Z,13.23
2024-01-07T14:27:47.193Z,10.93
2024-01-07T14:30:18.170Z,12.10
2024-01-07T14:32:47.036Z,16.23
2024-01-07T14:35:16.388Z,13.03
2024-01-07T14:37:45.522Z,14.57
2024-01-07T14:40:15.124Z,20.77
2024-01-07T14:42:45.143Z,16.27
2024-01-07T14:45:14.353Z,16.50
2024-01-07T14:47:44.709Z,14.50
2024-01-07T14:50:15.746Z,13.07
2024-01-07T14:52:44.672Z,11.50
2024-01-07T14:55:14.319Z,16.40
2024-01-07T14:57:43.418Z,13.90
2024-01-07T15:00:13.279Z,13.93
2024-01-07T15:02:43.506Z,12.17
2024-01-07T15:05:12.918Z,14.63
2024-01-07T15:07:42.136Z,14.80
2024-01-07T15:10:11.692Z,17.53
2024-01-07T15:12:45.320Z,14.67
2024-01-07T15:15:20.068Z,12.43
2024-01-07T15:17:50.562Z,10.47
2024-01-07T15:20:19.894Z,14.30
2024-01-07T15:22:50.285Z,30.97
2024-01-07T15:25:21.278Z,30.13
2024-01-07T15:27:50.271Z,19.03
2024-01-07T15:30:19.703Z,14.83
2024-01-07T15:32:50.302Z,30.93
2024-01-07T15:35:19.609Z,22.60
2024-01-07T15:37:50.019Z,16.13
2024-01-07T15:40:19.619Z,15.57
2024-01-07T15:42:49.035Z,20.97
2024-01-07T15:45:18.413Z,12.37
2024-01-07T15:47:48.011Z,17.27
2024-01-07T15:50:18.749Z,18.60
2024-01-07T15:52:50.083Z,25.57
2024-01-07T15:55:20.115Z,9.57
2024-01-07T15:57:49.407Z,17.73
2024-01-07T16:00:19.872Z,18.97
2024-01-07T16:02:48.978Z,15.03
2024-01-07T16:05:19.786Z,15.87
2024-01-07T16:07:49.129Z,12.50
2024-01-07T16:10:18.528Z,11.60
2024-01-07T16:12:47.553Z,13.87
2024-01-07T16:15:16.995Z,11.97
2024-01-07T16:17:46.197Z,14.33
2024-01-07T16:20:15.728Z,17.57
2024-01-07T16:22:46.227Z,14.67
2024-01-07T16:25:15.559Z,14.53
2024-01-07T16:27:44.572Z,20.17
2024-01-07T16:30:14.725Z,14.27
2024-01-07T16:32:45.793Z,14.37
2024-01-07T16:35:14.959Z,18.43
2024-01-07T16:37:45.089Z,17.40
2024-01-07T16:40:14.501Z,20.90
2024-01-07T16:42:44.910Z,19.30
2024-01-07T16:45:14.691Z,15.43
2024-01-07T16:47:43.583Z,17.43
2024-01-07T16:50:21.839Z,19.67
2024-01-07T16:52:55.261Z,19.30
2024-01-07T16:55:24.554Z,16.97
2024-01-07T16:57:53.787Z,19.10
2024-01-07T17:00:24.326Z,18.00
2024-01-07T17:02:53.278Z,17.73
2024-01-07T17:05:22.617Z,18.10
2024-01-07T17:07:51.428Z,17.87
2024-01-07T17:10:22.590Z,17.50
2024-01-07T17:12:51.422Z,18.03
2024-01-07T17:15:21.829Z,17.43
2024-01-07T17:17:51.743Z,21.87
2024-01-07T17:20:21.383Z,15.00
2024-01-07T17:22:50.270Z,17.17
2024-01-07T17:25:21.046Z,18.97
2024-01-07T17:27:51.157Z,16.67
2024-01-07T17:30:20.519Z,17.47
2024-01-07T17:32:53.227Z,17.00
2024-01-07T17:35:26.043Z,20.00
2024-01-07T17:37:54.869Z,18.97
2024-01-07T17:40:25.518Z,17.80
2024-01-07T17:42:54.958Z,20.87
2024-01-07T17:45:24.995Z,18.43
2024-01-07T17:47:54.452Z,19.10
2024-01-07T17:50:23.895Z,18.67
2024-01-07T17:52:52.842Z,19.30
2024-01-07T17:55:21.912Z,19.50
2024-01-07T17:57:52.476Z,17.43
2024-01-07T18:00:23.903Z,23.83
2024-01-07T18:02:52.891Z,28.50
2024-01-07T18:05:22.333Z,21.40
2024-01-07T18:07:51.482Z,26.07
2024-01-07T18:10:20.851Z,22.37
2024-01-07T18:12:51.300Z,21.93
2024-01-07T18:15:20.577Z,24.87
2024-01-07T18:17:49.695Z,22.37
2024-01-07T18:20:19.568Z,19.63
2024-01-07T18:22:49.155Z,19.30
2024-01-07T18:25:18.607Z,21.50
2024-01-07T18:27:47.675Z,25.63
2024-01-07T18:30:18.333Z,21.57
2024-01-07T18:32:47.402Z,22.53
2024-01-07T18:35:20.891Z,26.57
2024-01-07T18:37:51.743Z,22.80
2024-01-07T18:40:21.508Z,22.97
2024-01-07T18:42:50.466Z,22.87
2024-01-07T18:45:24.037Z,25.83
2024-01-07T18:47:53.257Z,24.63
2024-01-07T18:50:22.416Z,27.60
2024-01-07T18:52:51.784Z,27.57
2024-01-07T18:55:21.553Z,26.07
2024-01-07T18:57:50.854Z,29.60
2024-01-07T19:00:21.767Z,24.90
2024-01-07T19:02:50.685Z,31.27
2024-01-07T19:05:20.217Z,26.70
2024-01-07T19:07:49.415Z,23.10
2024-01-07T19:10:18.945Z,30.17
2024-01-07T19:12:47.854Z,29.73
2024-01-07T19:15:18.770Z,26.87
2024-01-07T19:17:50.600Z,24.87
2024-01-07T19:20:20.465Z,24.47
2024-01-07T19:22:49.390Z,19.87
2024-01-07T19:25:18.539Z,24.43
2024-01-07T19:27:47.456Z,28.13
2024-01-07T19:30:16.730Z,23.07
2024-01-07T19:32:46.784Z,19.50
2024-01-07T19:35:18.187Z,25.63
2024-01-07T19:37:47.184Z,21.70
2024-01-07T19:40:16.896Z,22.63
2024-01-07T19:42:47.112Z,25.67
2024-01-07T19:45:16.301Z,22.87
2024-01-07T19:47:45.234Z,22.20
2024-01-07T19:50:14.988Z,19.27
2024-01-07T19:52:47.387Z,25.50
2024-01-07T19:55:16.931Z,23.43
2024-01-07T19:57:46.206Z,22.00
2024-01-07T20:00:16.073Z,20.93
2024-01-07T20:02:50.073Z,22.63
2024-01-07T20:05:20.198Z,19.70
2024-01-07T20:07:50.570Z,22.27
2024-01-07T20:10:19.946Z,22.13
2024-01-07T20:12:49.397Z,20.03
2024-01-07T20:15:20.012Z,26.60
2024-01-07T20:17:48.867Z,22.80
2024-01-07T20:20:18.557Z,20.17
2024-01-07T20:22:47.546Z,20.27
2024-01-07T20:25:18.283Z,20.57
2024-01-07T20:27:47.177Z,22.50
2024-01-07T20:30:17.096Z,23.67
2024-01-07T20:32:46.267Z,24.40
2024-01-07T20:35:15.596Z,18.47
2024-01-07T20:37:46.550Z,18.97
2024-01-07T20:40:17.426Z,19.97
2024-01-07T20:42:46.393Z,18.27
2024-01-07T20:45:15.796Z,24.20
2024-01-07T20:47:46.517Z,19.70
2024-01-07T20:50:16.022Z,19.77
2024-01-07T20:52:47.130Z,24.30
2024-01-07T20:55:17.866Z,25.77
2024-01-07T20:57:47.977Z,19.33
2024-01-07T21:00:18.948Z,27.27
2024-01-07T21:02:48.431Z,23.20
2024-01-07T21:05:20.357Z,26.47
2024-01-07T21:07:49.960Z,25.07
2024-01-07T21:10:20.650Z,26.10
2024-01-07T21:12:49.756Z,22.57
2024-01-07T21:15:19.133Z,21.63
2024-01-07T21:17:48.156Z,22.00
2024-01-07T21:20:17.700Z,24.17
2024-01-07T21:22:46.938Z,24.13
2024-01-07T21:25:17.759Z,26.83
2024-01-07T21:27:48.130Z,23.43
2024-01-07T21:30:17.874Z,23.47
2024-01-07T21:32:46.994Z,23.67
2024-01-07T21:35:17.783Z,22.67
2024-01-07T21:37:47.148Z,20.57
2024-01-07T21:40:17.114Z,26.00
2024-01-07T21:42:47.305Z,24.97
2024-01-07T21:45:16.447Z,36.73
2024-01-07T21:47:45.339Z,25.77
2024-01-07T21:50:15.431Z,30.70
2024-01-07T21:52:55.069Z,26.03
2024-01-07T21:55:24.761Z,25.93
2024-01-07T21:57:55.972Z,30.83
2024-01-07T22:00:25.260Z,28.30
2024-01-07T22:02:54.189Z,20.23
2024-01-07T22:05:23.468Z,21.60
2024-01-07T22:07:52.382Z,24.43
2024-01-07T22:10:21.504Z,21.87
2024-01-07T22:12:50.405Z,26.30
2024-01-07T22:15:20.932Z,22.10
2024-01-07T22:17:49.854Z,26.10
2024-01-07T22:20:19.220Z,25.70
2024-01-07T22:22:48.193Z,25.13
2024-01-07T22:25:17.604Z,20.67
2024-01-07T22:27:46.515Z,25.03
2024-01-07T22:30:16.482Z,28.10
2024-01-07T22:32:47.758Z,25.43
2024-01-07T22:35:17.116Z,26.97
2024-01-07T22:37:46.004Z,22.97
2024-01-07T22:40:15.312Z,25.40
2024-01-07T22:42:44.218Z,28.67
2024-01-07T22:45:13.553Z,35.00
2024-01-07T22:47:42.504Z,22.67
2024-01-07T22:50:13.152Z,23.03
2024-01-07T22:52:41.956Z,23.77
2024-01-07T22:55:11.707Z,20.93
2024-01-07T22:57:40.630Z,21.07
2024-01-07T23:00:15.981Z,20.60
2024-01-07T23:02:45.052Z,21.63
2024-01-07T23:05:16.015Z,19.30
2024-01-07T23:07:44.978Z,21.67
2024-01-07T23:10:15.770Z,23.23
2024-01-07T23:12:45.470Z,21.93
2024-01-07T23:15:16.149Z,19.50
2024-01-07T23:17:45.536Z,21.07
2024-01-07T23:20:16.666Z,21.60
2024-01-07T23:22:45.521Z,20.27
2024-01-07T23:25:14.702Z,20.37
2024-01-07T23:27:43.614Z,16.60
2024-01-07T23:30:13.914Z,18.57
2024-01-07T23:32:42.943Z,22.57
2024-01-07T23:35:12.620Z,21.83
2024-01-07T23:37:42.914Z,19.87
2024-01-07T23:40:12.922Z,19.07
2024-01-07T23:42:41.816Z,18.90
2024-01-07T23:45:11.242Z,22.90
2024-01-07T23:47:40.337Z,18.87
2024-01-07T23:50:10.413Z,25.37
2024-01-07T23:52:42.344Z,22.47
2024-01-07T23:55:11.441Z,17.67
2024-01-07T23:57:40.635Z,22.03
